Terminal Aerodrome Forecast
Issued by NWS Dallas/Fort Worth, TX

Home | Current Version | Previous Version | Text Only | Print | Product List | Glossary On
Versions: 1 2 3 4 5 6 7 8 9 10 11 12 13 14 15 16 17 18 19 20 21 22 23 24 25 26 27 28
000
FTUS44 KFWD 271134
TAFACT
TAF
KACT 271134Z 2712/2812 10007KT 4SM TSRA SCT015 BKN020CB
     FM271400 16012KT 6SM -SHRA VCTS OVC025CB
     FM271700 17015KT P6SM SCT025 BKN035
     FM272100 18013KT P6SM VCTS OVC035CB
     FM280100 17017KT P6SM SCT040
     FM280500 17014KT P6SM OVC025
     FM280900 17013KT P6SM BKN012=

USA.gov is the U.S. government's official web portal to all federal, state and local government web resources and services.